sensor_id;sensor_type;location;lat;lon;timestamp;temperature;humidity
15666;DHT22;20725;51.196;3.510;2022-12-10T00:01:31;-0.50;99.90
15666;DHT22;20725;51.196;3.510;2022-12-10T00:03:58;-0.60;99.90
15666;DHT22;20725;51.196;3.510;2022-12-10T00:06:28;-0.60;99.90
15666;DHT22;20725;51.196;3.510;2022-12-10T00:09:01;-0.70;99.90
15666;DHT22;20725;51.196;3.510;2022-12-10T00:11:28;-0.70;99.90
15666;DHT22;20725;51.196;3.510;2022-12-10T00:13:56;-0.60;99.90
15666;DHT22;20725;51.196;3.510;2022-12-10T00:16:25;-0.50;99.90
15666;DHT22;20725;51.196;3.510;2022-12-10T00:18:55;-0.50;99.90
15666;DHT22;20725;51.196;3.510;2022-12-10T00:21:24;-0.60;99.90
15666;DHT22;20725;51.196;3.510;2022-12-10T00:23:52;-0.60;99.90
15666;DHT22;20725;51.196;3.510;2022-12-10T00:26:22;-0.60;99.90
15666;DHT22;20725;51.196;3.510;2022-12-10T00:28:50;-0.60;99.90
15666;DHT22;20725;51.196;3.510;2022-12-10T00:31:19;-0.60;99.90
15666;DHT22;20725;51.196;3.510;2022-12-10T00:33:47;-0.50;99.90
15666;DHT22;20725;51.196;3.510;2022-12-10T00:36:17;-0.40;99.90
15666;DHT22;20725;51.196;3.510;2022-12-10T00:38:45;-0.30;99.90
15666;DHT22;20725;51.196;3.510;2022-12-10T00:41:12;-0.30;99.90
15666;DHT22;20725;51.196;3.510;2022-12-10T00:43:42;-0.20;99.90
15666;DHT22;20725;51.196;3.510;2022-12-10T00:46:11;-0.20;99.90
15666;DHT22;20725;51.196;3.510;2022-12-10T00:48:38;-0.10;99.90
15666;DHT22;20725;51.196;3.510;2022-12-10T00:51:07;-0.20;99.90
15666;DHT22;20725;51.196;3.510;2022-12-10T00:53:36;-0.20;99.90
15666;DHT22;20725;51.196;3.510;2022-12-10T00:56:05;-0.20;99.90
15666;DHT22;20725;51.196;3.510;2022-12-10T00:58:33;-0.10;99.90
15666;DHT22;20725;51.196;3.510;2022-12-10T01:08:50;0.00;99.90
15666;DHT22;20725;51.196;3.510;2022-12-10T01:11:24;0.10;99.90
15666;DHT22;20725;51.196;3.510;2022-12-10T01:14:11;0.00;99.90
15666;DHT22;20725;51.196;3.510;2022-12-10T01:16:46;-0.10;99.90
15666;DHT22;20725;51.196;3.510;2022-12-10T01:19:32;0.10;99.90
15666;DHT22;20725;51.196;3.510;2022-12-10T01:22:28;0.10;99.90
15666;DHT22;20725;51.196;3.510;2022-12-10T01:25:09;0.10;99.90
15666;DHT22;20725;51.196;3.510;2022-12-10T01:27:47;0.10;99.90
15666;DHT22;20725;51.196;3.510;2022-12-10T01:30:16;0.30;99.90
15666;DHT22;20725;51.196;3.510;2022-12-10T01:32:58;0.20;99.90
15666;DHT22;20725;51.196;3.510;2022-12-10T01:35:36;0.20;99.90
15666;DHT22;20725;51.196;3.510;2022-12-10T01:38:08;0.30;99.90
15666;DHT22;20725;51.196;3.510;2022-12-10T01:40:42;0.40;99.90
15666;DHT22;20725;51.196;3.510;2022-12-10T01:46:34;0.50;99.90
15666;DHT22;20725;51.196;3.510;2022-12-10T01:49:18;0.40;99.90
15666;DHT22;20725;51.196;3.510;2022-12-10T01:52:25;0.30;99.90
15666;DHT22;20725;51.196;3.510;2022-12-10T01:54:59;0.40;99.90
15666;DHT22;20725;51.196;3.510;2022-12-10T01:57:37;0.30;99.90
15666;DHT22;20725;51.196;3.510;2022-12-10T02:00:14;0.30;99.90
15666;DHT22;20725;51.196;3.510;2022-12-10T02:03:24;0.20;99.90
15666;DHT22;20725;51.196;3.510;2022-12-10T02:06:25;0.20;99.90
15666;DHT22;20725;51.196;3.510;2022-12-10T02:09:12;0.40;99.90
15666;DHT22;20725;51.196;3.510;2022-12-10T02:11:50;0.20;99.90
15666;DHT22;20725;51.196;3.510;2022-12-10T02:14:41;0.40;99.90
15666;DHT22;20725;51.196;3.510;2022-12-10T02:17:15;0.40;99.90
15666;DHT22;20725;51.196;3.510;2022-12-10T02:23:22;0.30;99.90
15666;DHT22;20725;51.196;3.510;2022-12-10T02:26:09;0.20;99.90
15666;DHT22;20725;51.196;3.510;2022-12-10T02:29:03;0.30;99.90
15666;DHT22;20725;51.196;3.510;2022-12-10T02:31:39;0.30;99.90
15666;DHT22;20725;51.196;3.510;2022-12-10T02:34:33;0.40;99.90
15666;DHT22;20725;51.196;3.510;2022-12-10T02:37:31;0.60;99.90
15666;DHT22;20725;51.196;3.510;2022-12-10T02:40:17;0.70;99.90
15666;DHT22;20725;51.196;3.510;2022-12-10T02:43:02;0.60;99.90
15666;DHT22;20725;51.196;3.510;2022-12-10T02:45:36;0.40;99.90
15666;DHT22;20725;51.196;3.510;2022-12-10T02:48:14;0.40;99.90
15666;DHT22;20725;51.196;3.510;2022-12-10T02:50:49;0.50;99.90
15666;DHT22;20725;51.196;3.510;2022-12-10T02:53:17;0.50;99.90
15666;DHT22;20725;51.196;3.510;2022-12-10T02:55:58;0.50;99.90
15666;DHT22;20725;51.196;3.510;2022-12-10T02:58:56;0.60;99.90
15666;DHT22;20725;51.196;3.510;2022-12-10T03:01:44;0.60;99.90
15666;DHT22;20725;51.196;3.510;2022-12-10T03:04:43;0.60;99.90
15666;DHT22;20725;51.196;3.510;2022-12-10T03:07:40;0.70;99.90
15666;DHT22;20725;51.196;3.510;2022-12-10T03:10:28;0.60;99.90
15666;DHT22;20725;51.196;3.510;2022-12-10T03:13:10;0.30;99.90
15666;DHT22;20725;51.196;3.510;2022-12-10T03:15:50;0.20;99.90
15666;DHT22;20725;51.196;3.510;2022-12-10T03:18:27;0.00;99.90
15666;DHT22;20725;51.196;3.510;2022-12-10T03:21:13;0.10;99.90
15666;DHT22;20725;51.196;3.510;2022-12-10T03:24:05;0.10;99.90
15666;DHT22;20725;51.196;3.510;2022-12-10T03:26:54;0.10;99.90
15666;DHT22;20725;51.196;3.510;2022-12-10T03:29:45;0.10;99.90
15666;DHT22;20725;51.196;3.510;2022-12-10T03:32:30;0.10;99.90
15666;DHT22;20725;51.196;3.510;2022-12-10T03:41:32;0.30;99.90
15666;DHT22;20725;51.196;3.510;2022-12-10T03:44:07;0.30;99.90
15666;DHT22;20725;51.196;3.510;2022-12-10T03:46:49;0.20;99.90
15666;DHT22;20725;51.196;3.510;2022-12-10T03:49:40;0.00;99.90
15666;DHT22;20725;51.196;3.510;2022-12-10T03:52:16;0.00;99.90
15666;DHT22;20725;51.196;3.510;2022-12-10T03:54:54;0.00;99.90
15666;DHT22;20725;51.196;3.510;2022-12-10T03:57:29;0.00;99.90
15666;DHT22;20725;51.196;3.510;2022-12-10T04:00:00;0.10;99.90
15666;DHT22;20725;51.196;3.510;2022-12-10T04:02:45;0.10;99.90
15666;DHT22;20725;51.196;3.510;2022-12-10T04:05:31;-0.10;99.90
15666;DHT22;20725;51.196;3.510;2022-12-10T04:08:09;-0.10;99.90
15666;DHT22;20725;51.196;3.510;2022-12-10T04:10:46;-0.10;99.90
15666;DHT22;20725;51.196;3.510;2022-12-10T04:13:39;-0.20;99.90
15666;DHT22;20725;51.196;3.510;2022-12-10T04:16:32;-0.10;99.90
15666;DHT22;20725;51.196;3.510;2022-12-10T04:19:14;-0.20;99.90
15666;DHT22;20725;51.196;3.510;2022-12-10T04:22:02;-0.20;99.90
15666;DHT22;20725;51.196;3.510;2022-12-10T04:25:01;-0.10;99.90
15666;DHT22;20725;51.196;3.510;2022-12-10T04:27:48;0.00;99.90
15666;DHT22;20725;51.196;3.510;2022-12-10T04:30:56;-0.10;99.90
15666;DHT22;20725;51.196;3.510;2022-12-10T04:33:26;-0.10;99.90
15666;DHT22;20725;51.196;3.510;2022-12-10T04:35:58;-0.10;99.90
15666;DHT22;20725;51.196;3.510;2022-12-10T04:38:33;-0.10;99.90
15666;DHT22;20725;51.196;3.510;2022-12-10T04:41:20;-0.20;99.90
15666;DHT22;20725;51.196;3.510;2022-12-10T04:44:00;-0.10;99.90
15666;DHT22;20725;51.196;3.510;2022-12-10T04:46:50;-0.10;99.90
15666;DHT22;20725;51.196;3.510;2022-12-10T04:49:22;-0.30;99.90
15666;DHT22;20725;51.196;3.510;2022-12-10T04:52:02;-0.30;99.90
15666;DHT22;20725;51.196;3.510;2022-12-10T04:54:40;-0.30;99.90
15666;DHT22;20725;51.196;3.510;2022-12-10T04:57:21;-0.20;99.90
15666;DHT22;20725;51.196;3.510;2022-12-10T05:00:21;-0.10;99.90
15666;DHT22;20725;51.196;3.510;2022-12-10T05:02:57;-0.20;99.90
15666;DHT22;20725;51.196;3.510;2022-12-10T05:06:28;-0.30;99.90
15666;DHT22;20725;51.196;3.510;2022-12-10T05:08:40;-0.30;99.90
15666;DHT22;20725;51.196;3.510;2022-12-10T05:11:27;-0.20;99.90
15666;DHT22;20725;51.196;3.510;2022-12-10T05:14:15;-0.40;99.90
15666;DHT22;20725;51.196;3.510;2022-12-10T05:16:59;-0.40;99.90
15666;DHT22;20725;51.196;3.510;2022-12-10T05:19:35;-0.40;99.90
15666;DHT22;20725;51.196;3.510;2022-12-10T05:24:06;-0.40;99.90
15666;DHT22;20725;51.196;3.510;2022-12-10T05:26:02;-0.40;99.90
15666;DHT22;20725;51.196;3.510;2022-12-10T05:28:50;-0.40;99.90
15666;DHT22;20725;51.196;3.510;2022-12-10T05:31:28;-0.50;99.90
15666;DHT22;20725;51.196;3.510;2022-12-10T05:34:11;-0.30;99.90
15666;DHT22;20725;51.196;3.510;2022-12-10T05:37:06;-0.30;99.90
15666;DHT22;20725;51.196;3.510;2022-12-10T05:39:37;-0.30;99.90
15666;DHT22;20725;51.196;3.510;2022-12-10T05:42:18;-0.20;99.90
15666;DHT22;20725;51.196;3.510;2022-12-10T05:45:02;-0.30;99.90
15666;DHT22;20725;51.196;3.510;2022-12-10T05:47:35;-0.20;99.90
15666;DHT22;20725;51.196;3.510;2022-12-10T05:50:30;-0.10;99.90
15666;DHT22;20725;51.196;3.510;2022-12-10T05:53:19;-0.10;99.90
15666;DHT22;20725;51.196;3.510;2022-12-10T05:55:50;-0.10;99.90
15666;DHT22;20725;51.196;3.510;2022-12-10T05:58:26;-0.10;99.90
15666;DHT22;20725;51.196;3.510;2022-12-10T06:01:10;-0.10;99.90
15666;DHT22;20725;51.196;3.510;2022-12-10T06:04:01;-0.10;99.90
15666;DHT22;20725;51.196;3.510;2022-12-10T06:06:37;-0.10;99.90
15666;DHT22;20725;51.196;3.510;2022-12-10T06:12:25;-0.40;99.90
15666;DHT22;20725;51.196;3.510;2022-12-10T06:14:58;-0.30;99.90
15666;DHT22;20725;51.196;3.510;2022-12-10T06:17:42;-0.20;99.90
15666;DHT22;20725;51.196;3.510;2022-12-10T06:20:37;-0.20;99.90
15666;DHT22;20725;51.196;3.510;2022-12-10T06:23:37;-0.20;99.90
15666;DHT22;20725;51.196;3.510;2022-12-10T06:26:14;-0.30;99.90
15666;DHT22;20725;51.196;3.510;2022-12-10T06:28:57;-0.40;99.90
15666;DHT22;20725;51.196;3.510;2022-12-10T06:31:40;-0.30;99.90
15666;DHT22;20725;51.196;3.510;2022-12-10T06:34:27;-0.30;99.90
15666;DHT22;20725;51.196;3.510;2022-12-10T06:37:04;-0.20;99.90
15666;DHT22;20725;51.196;3.510;2022-12-10T06:39:39;-0.30;99.90
15666;DHT22;20725;51.196;3.510;2022-12-10T06:42:19;-0.30;99.90
15666;DHT22;20725;51.196;3.510;2022-12-10T06:45:08;-0.30;99.90
15666;DHT22;20725;51.196;3.510;2022-12-10T06:47:50;-0.30;99.90
15666;DHT22;20725;51.196;3.510;2022-12-10T06:50:34;-0.20;99.90
15666;DHT22;20725;51.196;3.510;2022-12-10T06:53:05;-0.20;99.90
15666;DHT22;20725;51.196;3.510;2022-12-10T06:55:46;-0.30;99.90
15666;DHT22;20725;51.196;3.510;2022-12-10T06:58:33;-0.30;99.90
15666;DHT22;20725;51.196;3.510;2022-12-10T07:01:24;-0.20;99.90
15666;DHT22;20725;51.196;3.510;2022-12-10T07:04:11;-0.20;99.90
15666;DHT22;20725;51.196;3.510;2022-12-10T07:06:50;-0.30;99.90
15666;DHT22;20725;51.196;3.510;2022-12-10T07:09:51;-0.20;99.90
15666;DHT22;20725;51.196;3.510;2022-12-10T07:12:28;-0.30;99.90
15666;DHT22;20725;51.196;3.510;2022-12-10T07:14:59;-0.10;99.90
15666;DHT22;20725;51.196;3.510;2022-12-10T07:17:37;-0.20;99.90
15666;DHT22;20725;51.196;3.510;2022-12-10T07:20:19;-0.10;99.90
15666;DHT22;20725;51.196;3.510;2022-12-10T07:23:14;-0.10;99.90
15666;DHT22;20725;51.196;3.510;2022-12-10T07:26:24;-0.20;99.90
15666;DHT22;20725;51.196;3.510;2022-12-10T07:29:21;-0.10;99.90
15666;DHT22;20725;51.196;3.510;2022-12-10T07:32:14;-0.20;99.90
15666;DHT22;20725;51.196;3.510;2022-12-10T07:35:05;-0.10;99.90
15666;DHT22;20725;51.196;3.510;2022-12-10T07:37:46;-0.10;99.90
15666;DHT22;20725;51.196;3.510;2022-12-10T07:40:31;-0.10;99.90
15666;DHT22;20725;51.196;3.510;2022-12-10T07:43:20;0.00;99.90
15666;DHT22;20725;51.196;3.510;2022-12-10T07:46:09;0.00;99.90
15666;DHT22;20725;51.196;3.510;2022-12-10T07:48:56;0.00;99.90
15666;DHT22;20725;51.196;3.510;2022-12-10T07:52:03;-0.10;99.90
15666;DHT22;20725;51.196;3.510;2022-12-10T07:54:43;0.00;99.90
15666;DHT22;20725;51.196;3.510;2022-12-10T07:57:33;0.00;99.90
15666;DHT22;20725;51.196;3.510;2022-12-10T08:00:27;0.10;99.90
15666;DHT22;20725;51.196;3.510;2022-12-10T08:03:08;0.00;99.90
15666;DHT22;20725;51.196;3.510;2022-12-10T08:06:09;0.00;99.90
15666;DHT22;20725;51.196;3.510;2022-12-10T08:09:23;0.10;99.90
15666;DHT22;20725;51.196;3.510;2022-12-10T08:15:09;0.20;99.90
15666;DHT22;20725;51.196;3.510;2022-12-10T08:17:50;0.30;99.90
15666;DHT22;20725;51.196;3.510;2022-12-10T08:20:23;0.30;99.90
15666;DHT22;20725;51.196;3.510;2022-12-10T08:23:24;0.30;99.90
15666;DHT22;20725;51.196;3.510;2022-12-10T08:33:29;0.30;99.90
15666;DHT22;20725;51.196;3.510;2022-12-10T08:36:36;0.40;99.90
15666;DHT22;20725;51.196;3.510;2022-12-10T08:39:49;0.50;99.90
15666;DHT22;20725;51.196;3.510;2022-12-10T08:42:42;0.50;99.90
15666;DHT22;20725;51.196;3.510;2022-12-10T08:45:38;0.50;99.90
15666;DHT22;20725;51.196;3.510;2022-12-10T08:51:56;0.50;99.90
15666;DHT22;20725;51.196;3.510;2022-12-10T08:54:37;0.50;99.90
15666;DHT22;20725;51.196;3.510;2022-12-10T09:00:41;0.60;99.90
15666;DHT22;20725;51.196;3.510;2022-12-10T09:03:30;0.60;99.90
15666;DHT22;20725;51.196;3.510;2022-12-10T09:06:13;0.80;99.90
15666;DHT22;20725;51.196;3.510;2022-12-10T09:08:57;0.80;99.90
15666;DHT22;20725;51.196;3.510;2022-12-10T09:11:32;0.90;99.90
15666;DHT22;20725;51.196;3.510;2022-12-10T09:14:18;1.00;99.90
15666;DHT22;20725;51.196;3.510;2022-12-10T09:16:53;0.90;99.90
15666;DHT22;20725;51.196;3.510;2022-12-10T09:19:36;0.70;99.90
15666;DHT22;20725;51.196;3.510;2022-12-10T09:22:38;0.70;99.90
15666;DHT22;20725;51.196;3.510;2022-12-10T09:25:30;0.50;99.90
15666;DHT22;20725;51.196;3.510;2022-12-10T09:28:11;0.40;99.90
15666;DHT22;20725;51.196;3.510;2022-12-10T09:30:59;0.50;99.90
15666;DHT22;20725;51.196;3.510;2022-12-10T09:36:50;0.60;99.90
15666;DHT22;20725;51.196;3.510;2022-12-10T09:39:35;0.70;99.90
15666;DHT22;20725;51.196;3.510;2022-12-10T09:42:34;0.70;99.90
15666;DHT22;20725;51.196;3.510;2022-12-10T09:45:29;0.70;99.90
15666;DHT22;20725;51.196;3.510;2022-12-10T09:48:05;0.70;99.90
15666;DHT22;20725;51.196;3.510;2022-12-10T09:50:49;0.70;99.90
15666;DHT22;20725;51.196;3.510;2022-12-10T09:53:28;0.80;99.90
15666;DHT22;20725;51.196;3.510;2022-12-10T09:56:23;1.10;99.90
15666;DHT22;20725;51.196;3.510;2022-12-10T09:59:03;1.50;99.90
15666;DHT22;20725;51.196;3.510;2022-12-10T10:01:39;1.60;99.90
15666;DHT22;20725;51.196;3.510;2022-12-10T10:04:21;1.80;99.90
15666;DHT22;20725;51.196;3.510;2022-12-10T10:07:09;2.00;99.90
15666;DHT22;20725;51.196;3.510;2022-12-10T10:10:02;2.30;99.90
15666;DHT22;20725;51.196;3.510;2022-12-10T10:13:10;2.30;99.90
15666;DHT22;20725;51.196;3.510;2022-12-10T10:16:31;2.00;99.90
15666;DHT22;20725;51.196;3.510;2022-12-10T10:19:35;2.00;99.90
15666;DHT22;20725;51.196;3.510;2022-12-10T10:22:47;2.00;99.90
15666;DHT22;20725;51.196;3.510;2022-12-10T10:25:46;2.70;99.90
15666;DHT22;20725;51.196;3.510;2022-12-10T10:28:29;3.50;99.90
15666;DHT22;20725;51.196;3.510;2022-12-10T10:44:12;7.80;99.90
15666;DHT22;20725;51.196;3.510;2022-12-10T10:46:49;8.60;99.90
15666;DHT22;20725;51.196;3.510;2022-12-10T10:50:03;9.10;90.40
15666;DHT22;20725;51.196;3.510;2022-12-10T10:52:53;9.40;92.50
15666;DHT22;20725;51.196;3.510;2022-12-10T10:55:41;9.40;99.90
15666;DHT22;20725;51.196;3.510;2022-12-10T10:58:23;10.30;93.60
15666;DHT22;20725;51.196;3.510;2022-12-10T11:01:12;9.70;90.10
15666;DHT22;20725;51.196;3.510;2022-12-10T11:04:10;8.50;86.10
15666;DHT22;20725;51.196;3.510;2022-12-10T11:07:16;9.10;99.90
15666;DHT22;20725;51.196;3.510;2022-12-10T11:10:15;10.50;87.80
15666;DHT22;20725;51.196;3.510;2022-12-10T11:13:18;11.40;91.90
15666;DHT22;20725;51.196;3.510;2022-12-10T11:16:22;12.70;84.60
15666;DHT22;20725;51.196;3.510;2022-12-10T11:19:23;15.20;77.70
15666;DHT22;20725;51.196;3.510;2022-12-10T11:25:42;16.20;52.90
15666;DHT22;20725;51.196;3.510;2022-12-10T11:28:43;17.30;49.60
15666;DHT22;20725;51.196;3.510;2022-12-10T11:31:55;16.60;49.60
15666;DHT22;20725;51.196;3.510;2022-12-10T11:35:01;17.80;44.20
15666;DHT22;20725;51.196;3.510;2022-12-10T11:38:14;19.00;44.10
15666;DHT22;20725;51.196;3.510;2022-12-10T11:41:03;17.60;47.60
15666;DHT22;20725;51.196;3.510;2022-12-10T11:44:28;18.70;44.60
15666;DHT22;20725;51.196;3.510;2022-12-10T11:47:29;17.80;44.20
15666;DHT22;20725;51.196;3.510;2022-12-10T11:50:25;17.00;46.50
15666;DHT22;20725;51.196;3.510;2022-12-10T11:56:30;17.20;43.10
15666;DHT22;20725;51.196;3.510;2022-12-10T11:59:19;17.80;43.40
15666;DHT22;20725;51.196;3.510;2022-12-10T12:02:07;15.40;46.30
15666;DHT22;20725;51.196;3.510;2022-12-10T12:08:19;13.40;52.00
15666;DHT22;20725;51.196;3.510;2022-12-10T12:11:11;11.90;56.90
15666;DHT22;20725;51.196;3.510;2022-12-10T12:14:04;10.80;59.20
15666;DHT22;20725;51.196;3.510;2022-12-10T12:17:02;9.30;65.30
15666;DHT22;20725;51.196;3.510;2022-12-10T12:19:39;9.60;67.10
15666;DHT22;20725;51.196;3.510;2022-12-10T12:22:53;8.70;68.50
15666;DHT22;20725;51.196;3.510;2022-12-10T12:25:59;10.40;65.20
15666;DHT22;20725;51.196;3.510;2022-12-10T12:29:13;11.80;59.40
15666;DHT22;20725;51.196;3.510;2022-12-10T12:32:20;13.40;55.60
15666;DHT22;20725;51.196;3.510;2022-12-10T12:35:18;12.90;55.40
15666;DHT22;20725;51.196;3.510;2022-12-10T12:38:27;14.20;52.60
15666;DHT22;20725;51.196;3.510;2022-12-10T12:44:45;14.90;49.90
15666;DHT22;20725;51.196;3.510;2022-12-10T12:47:44;14.70;51.20
15666;DHT22;20725;51.196;3.510;2022-12-10T12:50:32;15.20;52.10
15666;DHT22;20725;51.196;3.510;2022-12-10T12:53:57;18.40;46.40
15666;DHT22;20725;51.196;3.510;2022-12-10T12:59:59;12.90;54.90
15666;DHT22;20725;51.196;3.510;2022-12-10T13:03:19;16.60;52.00
15666;DHT22;20725;51.196;3.510;2022-12-10T13:09:28;16.00;47.20
15666;DHT22;20725;51.196;3.510;2022-12-10T13:12:27;12.90;52.70
15666;DHT22;20725;51.196;3.510;2022-12-10T13:15:20;12.20;56.10
15666;DHT22;20725;51.196;3.510;2022-12-10T13:18:38;11.80;59.40
15666;DHT22;20725;51.196;3.510;2022-12-10T13:21:30;11.00;60.00
15666;DHT22;20725;51.196;3.510;2022-12-10T13:24:12;10.10;84.80
15666;DHT22;20725;51.196;3.510;2022-12-10T13:34:04;7.40;99.90
15666;DHT22;20725;51.196;3.510;2022-12-10T13:37:31;6.50;99.90
15666;DHT22;20725;51.196;3.510;2022-12-10T13:40:26;6.00;99.90
15666;DHT22;20725;51.196;3.510;2022-12-10T13:43:38;5.70;99.90
15666;DHT22;20725;51.196;3.510;2022-12-10T13:50:34;5.30;99.90
15666;DHT22;20725;51.196;3.510;2022-12-10T13:53:37;5.20;99.90
15666;DHT22;20725;51.196;3.510;2022-12-10T13:56:40;5.00;99.90
15666;DHT22;20725;51.196;3.510;2022-12-10T13:59:59;5.00;99.90
15666;DHT22;20725;51.196;3.510;2022-12-10T14:03:03;4.60;99.90
15666;DHT22;20725;51.196;3.510;2022-12-10T14:09:24;3.70;99.90
15666;DHT22;20725;51.196;3.510;2022-12-10T14:12:24;3.50;99.90
15666;DHT22;20725;51.196;3.510;2022-12-10T14:15:22;3.50;99.90
15666;DHT22;20725;51.196;3.510;2022-12-10T14:25:09;3.40;99.90
15666;DHT22;20725;51.196;3.510;2022-12-10T14:28:11;3.60;99.90
15666;DHT22;20725;51.196;3.510;2022-12-10T14:31:02;3.70;99.90
15666;DHT22;20725;51.196;3.510;2022-12-10T14:33:59;3.90;99.90
15666;DHT22;20725;51.196;3.510;2022-12-10T14:37:00;4.00;99.90
15666;DHT22;20725;51.196;3.510;2022-12-10T14:39:51;4.00;99.90
15666;DHT22;20725;51.196;3.510;2022-12-10T15:27:01;2.30;99.90
15666;DHT22;20725;51.196;3.510;2022-12-10T15:29:58;2.30;99.90
15666;DHT22;20725;51.196;3.510;2022-12-10T15:36:35;2.10;99.90
15666;DHT22;20725;51.196;3.510;2022-12-10T15:39:35;1.90;99.90
15666;DHT22;20725;51.196;3.510;2022-12-10T17:00:13;1.20;99.90
15666;DHT22;20725;51.196;3.510;2022-12-10T17:12:35;1.00;99.90
15666;DHT22;20725;51.196;3.510;2022-12-10T17:18:53;1.10;99.90
15666;DHT22;20725;51.196;3.510;2022-12-10T17:24:57;1.00;99.90
15666;DHT22;20725;51.196;3.510;2022-12-10T17:27:45;1.00;99.90
15666;DHT22;20725;51.196;3.510;2022-12-10T17:30:56;1.00;99.90
15666;DHT22;20725;51.196;3.510;2022-12-10T17:34:34;1.00;99.90
15666;DHT22;20725;51.196;3.510;2022-12-10T17:37:17;0.90;99.90
15666;DHT22;20725;51.196;3.510;2022-12-10T17:44:09;1.10;99.90
15666;DHT22;20725;51.196;3.510;2022-12-10T17:53:56;1.10;99.90
15666;DHT22;20725;51.196;3.510;2022-12-10T18:00:01;1.10;99.90
15666;DHT22;20725;51.196;3.510;2022-12-10T18:02:45;1.20;99.90
15666;DHT22;20725;51.196;3.510;2022-12-10T18:05:57;1.20;99.90
15666;DHT22;20725;51.196;3.510;2022-12-10T18:11:40;1.10;99.90
15666;DHT22;20725;51.196;3.510;2022-12-10T18:14:58;1.00;99.90
15666;DHT22;20725;51.196;3.510;2022-12-10T18:18:33;1.20;99.90
15666;DHT22;20725;51.196;3.510;2022-12-10T18:37:19;1.00;99.90
15666;DHT22;20725;51.196;3.510;2022-12-10T18:40:27;0.90;99.90
15666;DHT22;20725;51.196;3.510;2022-12-10T18:43:46;0.90;99.90
15666;DHT22;20725;51.196;3.510;2022-12-10T19:20:50;0.50;99.90
15666;DHT22;20725;51.196;3.510;2022-12-10T19:23:59;0.50;99.90
15666;DHT22;20725;51.196;3.510;2022-12-10T19:27:15;0.40;99.90
15666;DHT22;20725;51.196;3.510;2022-12-10T19:33:34;0.20;99.90
15666;DHT22;20725;51.196;3.510;2022-12-10T19:37:28;0.20;99.90
15666;DHT22;20725;51.196;3.510;2022-12-10T19:43:56;0.30;99.90
15666;DHT22;20725;51.196;3.510;2022-12-10T19:45:43;0.40;99.90
15666;DHT22;20725;51.196;3.510;2022-12-10T19:52:01;0.20;99.90
15666;DHT22;20725;51.196;3.510;2022-12-10T19:55:05;0.20;99.90
15666;DHT22;20725;51.196;3.510;2022-12-10T19:57:58;0.40;99.90
15666;DHT22;20725;51.196;3.510;2022-12-10T20:07:34;0.40;99.90
15666;DHT22;20725;51.196;3.510;2022-12-10T20:11:19;0.30;99.90
15666;DHT22;20725;51.196;3.510;2022-12-10T20:14:30;0.20;99.90
15666;DHT22;20725;51.196;3.510;2022-12-10T20:17:25;0.30;99.90
15666;DHT22;20725;51.196;3.510;2022-12-10T20:20:36;0.30;99.90
15666;DHT22;20725;51.196;3.510;2022-12-10T20:26:56;0.30;99.90
15666;DHT22;20725;51.196;3.510;2022-12-10T20:29:42;0.40;99.90
15666;DHT22;20725;51.196;3.510;2022-12-10T20:35:51;0.40;99.90
15666;DHT22;20725;51.196;3.510;2022-12-10T20:41:58;0.30;99.90
15666;DHT22;20725;51.196;3.510;2022-12-10T20:46:07;0.50;99.90
15666;DHT22;20725;51.196;3.510;2022-12-10T20:51:52;0.50;99.90
15666;DHT22;20725;51.196;3.510;2022-12-10T20:54:53;0.30;99.90
15666;DHT22;20725;51.196;3.510;2022-12-10T20:58:03;0.20;99.90
15666;DHT22;20725;51.196;3.510;2022-12-10T21:04:32;0.30;99.90
15666;DHT22;20725;51.196;3.510;2022-12-10T21:10:46;0.30;99.90
15666;DHT22;20725;51.196;3.510;2022-12-10T21:35:13;0.40;99.90
15666;DHT22;20725;51.196;3.510;2022-12-10T21:51:37;0.40;99.90
15666;DHT22;20725;51.196;3.510;2022-12-10T21:54:35;0.50;99.90
15666;DHT22;20725;51.196;3.510;2022-12-10T21:57:29;0.60;99.90
15666;DHT22;20725;51.196;3.510;2022-12-10T22:00:29;0.50;99.90
15666;DHT22;20725;51.196;3.510;2022-12-10T22:16:59;0.70;99.90
15666;DHT22;20725;51.196;3.510;2022-12-10T22:26:24;0.70;99.90
15666;DHT22;20725;51.196;3.510;2022-12-10T22:29:35;0.80;99.90
15666;DHT22;20725;51.196;3.510;2022-12-10T22:32:42;0.80;99.90
15666;DHT22;20725;51.196;3.510;2022-12-10T22:35:28;0.90;99.90
15666;DHT22;20725;51.196;3.510;2022-12-10T22:44:48;1.10;99.90
15666;DHT22;20725;51.196;3.510;2022-12-10T22:52:09;1.10;99.90
15666;DHT22;20725;51.196;3.510;2022-12-10T22:54:45;1.20;99.90
15666;DHT22;20725;51.196;3.510;2022-12-10T22:58:26;1.00;99.90
15666;DHT22;20725;51.196;3.510;2022-12-10T23:00:41;1.00;99.90
15666;DHT22;20725;51.196;3.510;2022-12-10T23:12:07;1.10;99.90
15666;DHT22;20725;51.196;3.510;2022-12-10T23:13:48;1.00;99.90
15666;DHT22;20725;51.196;3.510;2022-12-10T23:16:33;1.10;99.90
15666;DHT22;20725;51.196;3.510;2022-12-10T23:22:37;1.20;99.90
15666;DHT22;20725;51.196;3.510;2022-12-10T23:25:38;1.20;99.90
15666;DHT22;20725;51.196;3.510;2022-12-10T23:28:59;1.20;99.90
15666;DHT22;20725;51.196;3.510;2022-12-10T23:34:51;1.20;99.90
15666;DHT22;20725;51.196;3.510;2022-12-10T23:37:48;1.30;99.90
15666;DHT22;20725;51.196;3.510;2022-12-10T23:44:09;1.30;99.90
15666;DHT22;20725;51.196;3.510;2022-12-10T23:47:05;1.30;99.90
15666;DHT22;20725;51.196;3.510;2022-12-10T23:50:00;1.40;99.90
15666;DHT22;20725;51.196;3.510;2022-12-10T23:52:50;1.40;99.90
15666;DHT22;20725;51.196;3.510;2022-12-10T23:56:12;1.30;99.90
15666;DHT22;20725;51.196;3.510;2022-12-10T23:59:17;1.40;99.90
